Meteo Giornale » Osservazioni meteo Stati Uniti (USA) » Ponca City
ore: 15:53 - Osservazioni Meteo Ponca City
Lat. 36° 43' N Lon. 97° 5' W Alt. 307 metri s.l.m.
38 °C
Sereno
Temp. 24 Ore
23 °C
39 °C
Sud/Sud-Ovest
16.7 Km/h
Dew point 16 °C
Umidità 27 %
Visibilità 10 Km
Il sole sorge alle ore 06:58
Il sole tramonta alle ore 19:58
| Data e Ora | Cielo e Fenomeni | T °C | DP °C | Um. % | Pres. hPa | Vis. km | Vento km/h | |
|---|---|---|---|---|---|---|---|---|
| Oggi h: 15:53 | Sereno | 38 | 16 | 27 | 1013 | 10 | S/SO 16.7 | |
| Oggi h: 14:53 | Sereno | 38 | 14 | 24 | 1014 | 10 | SO 16.7 | |
| Oggi h: 13:53 | Sereno | 38 | 16 | 27 | 1014 | 10 | SO 16.7 | |
| Oggi h: 12:53 | Sereno | 37 | 17 | 30 | 1015 | 10 | SO 22.2 | |
| Oggi h: 11:53 | Sereno | 35 | 18 | 36 | 1015 | 10 | SO 16.7 | |
| Oggi h: 10:53 | Sereno | 33 | 18 | 41 | 1016 | 10 | SO 16.7 | |
| Oggi h: 09:53 | Sereno | 31 | 18 | 45 | 1016 | 10 | SO 14.8 | |
| Oggi h: 08:53 | Sereno | 28 | 17 | 51 | 1016 | 10 | S/SO 11.1 | |
| Oggi h: 07:53 | Sereno | 25 | 17 | 61 | 1016 | 10 | N 9.3 | |
| Oggi h: 06:53 | Sereno | 23 | 16 | 64 | 1015 | 10 | SO 11.1 | |
| Oggi h: 05:53 | Sereno | 26 | 16 | 54 | 1015 | 10 | O/SO 9.3 | |
| Oggi h: 04:53 | Sereno | 27 | 16 | 50 | 1014 | 10 | SO 13 | |
| Oggi h: 03:53 | Sereno | 27 | 16 | 50 | 1013 | 10 | SO 13 | |
| Oggi h: 02:53 | Sereno | 28 | 16 | 48 | 1013 | 10 | O/SO 13 | |
| Oggi h: 01:53 | Sereno | 28 | 16 | 48 | 1013 | 10 | O/SO 14.8 | |
| Oggi h: 00:53 | Sereno | 30 | 16 | 42 | 1013 | 10 | SO 16.7 | |
| Ieri h: 23:53 | Sereno | 31 | 16 | 40 | 1012 | 10 | S/SO 16.7 | |
| Ieri h: 22:53 | Sereno | 31 | 16 | 40 | 1012 | 10 | S/SE 14.8 | |
| Ieri h: 21:53 | Sereno | 32 | 16 | 38 | 1011 | 10 | N 0 | |
| Ieri h: 20:53 | Sereno | 33 | 16 | 36 | 1011 | 10 | S/SE 14.8 | |
| Ieri h: 19:53 | Sereno | 34 | 16 | 34 | 1010 | 10 | S 13 | |
| Ieri h: 18:53 | Sereno | 37 | 15 | 27 | 1010 | 10 | S/SO 14.8 | |
| Ieri h: 17:53 | Sereno | 38 | 16 | 27 | 1010 | 10 | SO 16.7 | |
| Ieri h: 16:53 | Sereno | 39 | 16 | 26 | 1010 | 10 | S/SO 18.5 | |



